Time;durP1;ratioP1;P1;durP2;ratioP2;P2;SDS_P1;SDS_P2;PMS_P1;PMS_P2;Temp;Humidity;BMP_temperature;BMP_pressure;BME280_temperature;BME280_humidity;BME280_pressure;Samples;Min_cycle;Max_cycle;Signal;HPM_P1;HPM_P2
2021/09/02 00:02:05;;;;;;;;;;;;;;;14.93;87.69;98828.80;1600410;89;24540;-86
2021/09/02 00:04:31;;;;;;;;;;;;;;;14.91;87.69;98833.35;1597191;88;20303;-86
2021/09/02 00:06:57;;;;;;;;;;;;;;;14.89;87.69;98827.39;1596591;88;26024;-86
2021/09/02 00:09:23;;;;;;;;;;;;;;;14.90;87.74;98833.83;1575369;89;24518;-86
2021/09/02 00:11:49;;;;;;;;;;;;;;;14.91;87.79;98830.23;1597665;88;20412;-87
2021/09/02 00:14:15;;;;;;;;;;;;;;;14.93;87.86;98833.59;1597008;88;24548;-87
2021/09/02 00:16:42;;;;;;;;;;;;;;;14.93;87.92;98836.23;1596736;87;21927;-87
2021/09/02 00:19:09;;;;;;;;;;;;;;;14.93;87.94;98845.45;1597921;88;26067;-88
2021/09/02 00:21:37;;;;;;;;;;;;;;;14.93;87.94;98839.34;1598607;88;24561;-88
2021/09/02 00:24:13;;;;;;;;;;;;;;;14.95;87.96;98837.41;1596388;89;20232;-89
2021/09/02 00:26:43;;;;;;;;;;;;;;;14.93;88.02;98844.62;1596853;89;24563;-89
2021/09/02 00:29:10;;;;;;;;;;;;;;;14.92;88.05;98847.73;1597253;89;21944;-89
2021/09/02 00:31:42;;;;;;;;;;;;;;;14.94;88.08;98849.77;1593205;89;26013;-89
2021/09/02 00:34:08;;;;;;;;;;;;;;;14.95;88.14;98851.89;1584666;89;24346;-89
2021/09/02 00:36:34;;;;;;;;;;;;;;;14.93;88.19;98848.57;1596680;89;20247;-88
2021/09/02 00:39:00;;;;;;;;;;;;;;;14.91;88.23;98851.80;1599319;87;20818;-88
2021/09/02 00:41:30;;;;;;;;;;;;;;;14.89;88.25;98860.33;1599418;88;20295;-88
2021/09/02 00:44:05;;;;;;;;;;;;;;;14.87;88.30;98855.65;1600049;87;26115;-88
2021/09/02 00:46:32;;;;;;;;;;;;;;;14.86;88.34;98864.03;1595733;87;25330;-88
2021/09/02 00:48:58;;;;;;;;;;;;;;;14.86;88.40;98853.49;1615663;86;20489;-88
2021/09/02 00:51:24;;;;;;;;;;;;;;;14.86;88.45;98850.02;1602957;87;24784;-88
2021/09/02 00:53:51;;;;;;;;;;;;;;;14.86;88.54;98852.17;1601433;87;20876;-88
2021/09/02 00:56:18;;;;;;;;;;;;;;;14.84;88.58;98854.56;1598571;89;26099;-89
2021/09/02 00:58:45;;;;;;;;;;;;;;;14.82;88.61;98851.23;1601786;88;24714;-89
2021/09/02 01:01:12;;;;;;;;;;;;;;;14.80;88.66;98853.98;1600590;88;20339;-89
2021/09/02 01:03:38;;;;;;;;;;;;;;;14.78;88.67;98851.97;1608959;87;24709;-89
2021/09/02 01:06:05;;;;;;;;;;;;;;;14.78;88.71;98853.77;1602177;87;20852;-89
2021/09/02 01:08:31;;;;;;;;;;;;;;;14.74;88.74;98855.78;1598040;87;25985;-89
2021/09/02 01:11:00;;;;;;;;;;;;;;;14.75;88.83;98852.20;1604824;89;20297;-89
2021/09/02 01:13:28;;;;;;;;;;;;;;;14.71;88.82;98855.20;1602534;88;20525;-88
2021/09/02 01:15:55;;;;;;;;;;;;;;;14.65;88.88;98852.58;1600301;89;24730;-88
2021/09/02 01:18:21;;;;;;;;;;;;;;;14.61;88.90;98852.00;1607272;87;21997;-88
2021/09/02 01:20:47;;;;;;;;;;;;;;;14.62;88.94;98855.44;1599255;87;26107;-88
2021/09/02 01:23:22;;;;;;;;;;;;;;;14.62;89.00;98851.02;1618328;87;24812;-89
2021/09/02 01:25:48;;;;;;;;;;;;;;;14.61;89.04;98854.63;1603277;87;20504;-88
2021/09/02 01:28:15;;;;;;;;;;;;;;;14.57;89.08;98851.02;1598453;87;20891;-88
2021/09/02 01:30:43;;;;;;;;;;;;;;;14.53;89.12;98851.75;1607060;87;20187;-89
2021/09/02 01:33:15;;;;;;;;;;;;;;;14.53;89.19;98850.91;1599930;87;26159;-89
2021/09/02 01:35:38;;;;;;;;;;;;;;;14.49;89.24;98849.48;1599486;87;25366;-89
2021/09/02 01:38:07;;;;;;;;;;;;;;;14.45;89.26;98855.97;1605580;87;20580;-90
2021/09/02 01:40:40;;;;;;;;;;;;;;;14.45;89.33;98853.34;1599850;88;24796;-90
2021/09/02 01:43:14;;;;;;;;;;;;;;;14.42;89.38;98846.50;1608831;87;21980;-90
2021/09/02 01:45:41;;;;;;;;;;;;;;;14.41;89.42;98854.51;1604205;87;25991;-90
2021/09/02 01:48:13;;;;;;;;;;;;;;;14.41;89.51;98852.72;1602559;87;24514;-90
2021/09/02 01:50:40;;;;;;;;;;;;;;;14.39;89.55;98849.39;1599527;89;20209;-89
2021/09/02 01:53:14;;;;;;;;;;;;;;;14.39;89.61;98852.02;1604460;88;24524;-89
2021/09/02 01:55:40;;;;;;;;;;;;;;;14.40;89.68;98852.35;1606701;87;21999;-89
2021/09/02 01:58:19;;;;;;;;;;;;;;;14.41;89.76;98851.41;1603796;87;26225;-89
2021/09/02 02:00:54;;;;;;;;;;;;;;;14.37;89.84;98850.45;1602478;87;24554;-89
2021/09/02 02:03:20;;;;;;;;;;;;;;;14.36;89.90;98854.84;1607963;87;20191;-89
2021/09/02 02:05:50;;;;;;;;;;;;;;;14.34;89.95;98855.94;1605827;87;24462;-89
2021/09/02 02:08:22;;;;;;;;;;;;;;;14.34;90.04;98852.83;1605488;87;22129;-89
2021/09/02 02:10:49;;;;;;;;;;;;;;;14.33;90.09;98846.36;1599602;89;26057;-89
2021/09/02 02:13:20;;;;;;;;;;;;;;;14.32;90.16;98850.78;1609265;87;24395;-89
2021/09/02 02:15:46;;;;;;;;;;;;;;;14.33;90.23;98846.36;1600259;89;20554;-88
2021/09/02 02:18:18;;;;;;;;;;;;;;;14.32;90.32;98841.57;1605984;87;24246;-89
2021/09/02 02:20:45;;;;;;;;;;;;;;;14.31;90.38;98839.89;1602044;87;21975;-89
2021/09/02 02:23:13;;;;;;;;;;;;;;;14.30;90.49;98842.63;1599762;87;25712;-89
2021/09/02 02:25:39;;;;;;;;;;;;;;;14.30;90.57;98840.00;1605641;87;24716;-89
2021/09/02 02:28:05;;;;;;;;;;;;;;;14.31;90.62;98834.63;1599100;87;20857;-88
2021/09/02 02:30:31;;;;;;;;;;;;;;;14.33;90.71;98843.73;1605827;87;20740;-88
2021/09/02 02:32:58;;;;;;;;;;;;;;;14.32;90.76;98841.57;1607411;87;20344;-88
2021/09/02 02:35:33;;;;;;;;;;;;;;;14.29;90.83;98835.72;1609355;87;26022;-89
2021/09/02 02:37:59;;;;;;;;;;;;;;;14.30;90.88;98834.26;1596010;87;24470;-89
2021/09/02 02:40:25;;;;;;;;;;;;;;;14.32;90.97;98831.52;1584691;89;20850;-88
2021/09/02 02:42:51;;;;;;;;;;;;;;;14.31;91.00;98828.52;1579156;88;24433;-88
2021/09/02 02:45:48;;;;;;;;;;;;;;;14.31;91.06;98834.63;1582238;88;20799;-89
2021/09/02 02:48:22;;;;;;;;;;;;;;;14.31;91.11;98830.67;1578448;88;26246;-88
2021/09/02 02:50:49;;;;;;;;;;;;;;;14.31;91.19;98831.99;1608287;88;24429;-88
2021/09/02 02:53:27;;;;;;;;;;;;;;;14.32;91.22;98831.52;1590161;88;20260;-87
2021/09/02 02:55:55;;;;;;;;;;;;;;;14.31;91.26;98835.94;1585052;88;25223;-88
2021/09/02 02:58:27;;;;;;;;;;;;;;;14.28;91.31;98838.83;1589033;88;21991;-87
2021/09/02 03:00:53;;;;;;;;;;;;;;;14.27;91.34;98838.47;1586395;88;26023;-87
2021/09/02 03:03:21;;;;;;;;;;;;;;;14.29;91.39;98837.03;1590752;88;24534;-87
2021/09/02 03:05:47;;;;;;;;;;;;;;;14.29;91.44;98843.14;1605704;88;20228;-87
2021/09/02 03:08:18;;;;;;;;;;;;;;;14.27;91.50;98840.25;1607966;88;24798;-87
2021/09/02 03:10:50;;;;;;;;;;;;;;;14.21;91.59;98841.09;1609710;88;22012;-88
2021/09/02 03:13:16;;;;;;;;;;;;;;;14.21;91.67;98839.78;1570899;90;26279;-88
2021/09/02 03:15:44;;;;;;;;;;;;;;;14.25;91.70;98841.20;1586352;88;39848;-88
2021/09/02 03:18:11;;;;;;;;;;;;;;;14.27;91.79;98837.14;1604010;88;20202;-88
2021/09/02 03:20:37;;;;;;;;;;;;;;;14.28;91.83;98830.93;1604664;88;24553;-88
2021/09/02 03:23:04;;;;;;;;;;;;;;;14.29;91.90;98831.77;1576457;89;21954;-88
2021/09/02 03:25:30;;;;;;;;;;;;;;;14.27;91.97;98833.20;1570102;90;26079;-88
2021/09/02 03:28:02;;;;;;;;;;;;;;;14.31;92.01;98831.99;1611225;88;20322;-89
2021/09/02 03:30:28;;;;;;;;;;;;;;;14.33;92.06;98834.52;1611379;88;20212;-87
2021/09/02 03:32:57;;;;;;;;;;;;;;;14.36;92.11;98831.62;1587529;88;20895;-87
2021/09/02 03:35:24;;;;;;;;;;;;;;;14.37;92.11;98832.02;1602877;88;22031;-88
2021/09/02 03:37:51;;;;;;;;;;;;;;;14.37;92.13;98835.49;1576240;89;26122;-87
2021/09/02 03:40:17;;;;;;;;;;;;;;;14.39;92.15;98841.48;1572769;89;24545;-87
2021/09/02 03:42:45;;;;;;;;;;;;;;;14.43;92.20;98846.02;1601121;88;20789;-87
2021/09/02 03:45:11;;;;;;;;;;;;;;;14.42;92.21;98847.81;1599658;88;24726;-87
2021/09/02 03:47:37;;;;;;;;;;;;;;;14.45;92.22;98848.06;1593683;89;20943;-87
2021/09/02 03:50:04;;;;;;;;;;;;;;;14.44;92.26;98860.39;1582707;90;26078;-87
2021/09/02 03:52:31;;;;;;;;;;;;;;;14.42;92.29;98860.98;1600834;88;24492;-87
2021/09/02 03:55:03;;;;;;;;;;;;;;;14.44;92.32;98860.39;1606184;88;20217;-87
2021/09/02 03:57:31;;;;;;;;;;;;;;;14.40;92.35;98866.84;1603837;88;24558;-87
2021/09/02 03:59:57;;;;;;;;;;;;;;;14.33;92.36;98871.38;1604763;87;22150;-88
2021/09/02 04:02:23;;;;;;;;;;;;;;;14.38;92.42;98867.45;1602710;88;21030;-88
2021/09/02 04:04:49;;;;;;;;;;;;;;;14.47;92.43;98871.98;1599128;88;20333;-88
2021/09/02 04:07:15;;;;;;;;;;;;;;;14.53;92.46;98862.29;1602309;88;20481;-88
2021/09/02 04:09:41;;;;;;;;;;;;;;;14.58;92.45;98861.44;1599809;88;20333;-89
2021/09/02 04:12:07;;;;;;;;;;;;;;;14.61;92.47;98866.48;1601946;87;20326;-88
2021/09/02 04:14:33;;;;;;;;;;;;;;;14.62;92.46;98863.34;1599422;88;26110;-88
2021/09/02 04:16:59;;;;;;;;;;;;;;;14.64;92.47;98871.97;1600498;88;20323;-88
2021/09/02 04:19:25;;;;;;;;;;;;;;;14.62;92.48;98875.20;1600012;88;20416;-87
2021/09/02 04:21:57;;;;;;;;;;;;;;;14.57;92.48;98872.94;1601628;88;24671;-88
2021/09/02 04:24:23;;;;;;;;;;;;;;;14.55;92.46;98877.98;1597426;88;22087;-88
2021/09/02 04:26:49;;;;;;;;;;;;;;;14.50;92.46;98883.62;1600672;88;21140;-88
2021/09/02 04:29:15;;;;;;;;;;;;;;;14.48;92.50;98880.25;1595276;88;24471;-88
2021/09/02 04:31:41;;;;;;;;;;;;;;;14.47;92.50;98879.89;1598182;88;20562;-88
2021/09/02 04:34:08;;;;;;;;;;;;;;;14.45;92.51;98876.56;1606434;88;24634;-87
2021/09/02 04:36:34;;;;;;;;;;;;;;;14.45;92.56;98876.56;1594159;88;22718;-88
2021/09/02 04:39:00;;;;;;;;;;;;;;;14.45;92.56;98880.98;1601276;88;21105;-87
2021/09/02 04:41:25;;;;;;;;;;;;;;;14.40;92.59;98884.46;1616523;85;20261;-87
2021/09/02 04:43:51;;;;;;;;;;;;;;;14.36;92.59;98882.49;1618063;86;20846;-87
2021/09/02 04:46:18;;;;;;;;;;;;;;;14.34;92.61;98882.27;1624541;86;24552;-87
2021/09/02 04:48:44;;;;;;;;;;;;;;;14.32;92.66;98886.80;1622759;86;21989;-87
2021/09/02 04:51:10;;;;;;;;;;;;;;;14.29;92.70;98891.84;1627608;86;21000;-87
2021/09/02 04:53:36;;;;;;;;;;;;;;;14.27;92.74;98898.17;1623996;86;24528;-87
2021/09/02 04:56:02;;;;;;;;;;;;;;;14.20;92.79;98899.96;1621472;86;20359;-87
2021/09/02 04:58:28;;;;;;;;;;;;;;;14.13;92.83;98903.17;1626128;86;24590;-87
2021/09/02 05:00:54;;;;;;;;;;;;;;;14.15;92.89;98906.06;1622915;86;21600;-87
2021/09/02 05:03:20;;;;;;;;;;;;;;;14.15;92.90;98906.53;1626817;86;26002;-87
2021/09/02 05:05:46;;;;;;;;;;;;;;;14.16;92.99;98907.74;1621063;86;20792;-87
2021/09/02 05:08:12;;;;;;;;;;;;;;;14.19;93.05;98914.07;1623034;86;20480;-87
2021/09/02 05:10:38;;;;;;;;;;;;;;;14.25;93.14;98915.39;1618572;86;20257;-87
2021/09/02 05:13:04;;;;;;;;;;;;;;;14.30;93.22;98905.82;1617892;86;20248;-87
2021/09/02 05:15:30;;;;;;;;;;;;;;;14.29;93.25;98905.48;1622361;86;21070;-88
2021/09/02 05:17:56;;;;;;;;;;;;;;;14.27;93.26;98906.91;1623182;87;20261;-88
2021/09/02 05:20:22;;;;;;;;;;;;;;;14.27;93.33;98908.23;1615860;88;20338;-88
2021/09/02 05:22:49;;;;;;;;;;;;;;;14.30;93.34;98905.34;1630173;85;24551;-88
2021/09/02 05:25:21;;;;;;;;;;;;;;;14.33;93.38;98913.50;1622078;87;22179;-88
2021/09/02 05:27:49;;;;;;;;;;;;;;;14.34;93.44;98915.19;1621115;88;26676;-88
2021/09/02 05:30:18;;;;;;;;;;;;;;;14.35;93.45;98920.78;1613187;87;24718;-88
2021/09/02 05:32:50;;;;;;;;;;;;;;;14.42;93.52;98918.91;1619462;86;20505;-88
2021/09/02 05:35:17;;;;;;;;;;;;;;;14.49;93.55;98914.86;1625172;88;24703;-88
2021/09/02 05:37:43;;;;;;;;;;;;;;;14.51;93.60;98922.14;1617447;88;20367;-88
2021/09/02 05:40:12;;;;;;;;;;;;;;;14.49;93.61;98924.08;1624198;88;26040;-88
2021/09/02 05:42:43;;;;;;;;;;;;;;;14.52;93.62;98921.66;1626687;87;24441;-88
2021/09/02 05:45:10;;;;;;;;;;;;;;;14.49;93.62;98933.29;1624128;87;21158;-88
2021/09/02 05:47:35;;;;;;;;;;;;;;;14.46;93.60;98938.78;1612185;88;24340;-88
2021/09/02 05:50:04;;;;;;;;;;;;;;;14.45;93.60;98938.92;1622048;87;20263;-88
2021/09/02 05:52:30;;;;;;;;;;;;;;;14.49;93.62;98941.19;1645120;86;27809;-88
2021/09/02 05:54:58;;;;;;;;;;;;;;;14.54;93.64;98944.30;1626586;87;24470;-87
2021/09/02 05:57:27;;;;;;;;;;;;;;;14.49;93.63;98950.89;1625709;86;20256;-88
2021/09/02 05:59:53;;;;;;;;;;;;;;;14.48;93.63;98943.94;1625438;86;24621;-88
2021/09/02 06:02:23;;;;;;;;;;;;;;;14.56;93.63;98946.32;1624991;87;22597;-87
2021/09/02 06:04:48;;;;;;;;;;;;;;;14.64;93.67;98944.42;1625427;87;26065;-88
2021/09/02 06:07:14;;;;;;;;;;;;;;;14.76;93.70;98948.73;1620797;87;20829;-88
2021/09/02 06:12:18;;;;;;;;;;;;;;;14.79;93.75;98951.11;1622275;87;24548;-88
2021/09/02 06:14:44;;;;;;;;;;;;;;;14.84;93.81;98946.31;1616927;87;22222;-88
2021/09/02 06:17:10;;;;;;;;;;;;;;;14.90;93.80;98949.78;1621376;86;21353;-87
2021/09/02 06:19:35;;;;;;;;;;;;;;;14.91;93.78;98955.89;1617105;87;24494;-87
2021/09/02 06:22:01;;;;;;;;;;;;;;;14.90;93.77;98956.37;1617377;87;20240;-87
2021/09/02 06:24:27;;;;;;;;;;;;;;;14.90;93.75;98960.33;1623986;87;20852;-87
2021/09/02 06:26:53;;;;;;;;;;;;;;;14.98;93.78;98960.57;1619637;87;20732;-87
2021/09/02 06:29:19;;;;;;;;;;;;;;;15.01;93.79;98960.31;1622244;87;21221;-87
2021/09/02 06:31:45;;;;;;;;;;;;;;;15.00;93.80;98963.91;1602588;87;24478;-87
2021/09/02 06:34:11;;;;;;;;;;;;;;;14.98;93.79;98959.25;1606862;87;20286;-87
2021/09/02 06:36:37;;;;;;;;;;;;;;;14.98;93.73;98963.20;1604136;87;24517;-87
2021/09/02 06:39:03;;;;;;;;;;;;;;;15.03;93.73;98964.16;1612212;87;20222;-87
2021/09/02 06:41:29;;;;;;;;;;;;;;;15.08;93.72;98968.58;1605140;87;26034;-87
2021/09/02 06:44:01;;;;;;;;;;;;;;;15.11;93.70;98971.47;1608051;87;24627;-87
2021/09/02 06:46:27;;;;;;;;;;;;;;;15.13;93.64;98971.69;1615862;87;20321;-87
2021/09/02 06:48:53;;;;;;;;;;;;;;;15.16;93.63;98978.05;1611010;87;20291;-88
2021/09/02 06:51:21;;;;;;;;;;;;;;;15.17;93.63;98982.81;1610486;87;21996;-87
2021/09/02 06:53:48;;;;;;;;;;;;;;;15.20;93.63;98986.06;1608719;88;26053;-88
2021/09/02 06:56:23;;;;;;;;;;;;;;;15.19;93.57;98985.70;1604839;87;25132;-87
2021/09/02 06:58:57;;;;;;;;;;;;;;;15.23;93.55;98991.55;1635773;85;20245;-88
2021/09/02 07:01:24;;;;;;;;;;;;;;;15.21;93.49;98996.13;1606594;87;24628;-87
2021/09/02 07:03:50;;;;;;;;;;;;;;;15.25;93.47;98994.92;1607821;88;20274;-88
2021/09/02 07:06:17;;;;;;;;;;;;;;;15.26;93.46;98998.77;1606250;88;26003;-87
2021/09/02 07:08:44;;;;;;;;;;;;;;;15.31;93.44;99002.34;1606257;87;24626;-87
2021/09/02 07:11:10;;;;;;;;;;;;;;;15.35;93.40;99003.28;1606995;88;20222;-88
2021/09/02 07:13:38;;;;;;;;;;;;;;;15.44;93.39;99003.86;1613853;88;20240;-88
2021/09/02 07:16:05;;;;;;;;;;;;;;;15.50;93.36;99007.80;1616457;88;22088;-87
2021/09/02 07:18:56;;;;;;;;;;;;;;;15.55;93.29;99006.17;1612827;87;26013;-87
2021/09/02 07:21:24;;;;;;;;;;;;;;;15.59;93.29;99013.70;1604120;88;25465;-88
2021/09/02 07:24:02;;;;;;;;;;;;;;;15.61;93.28;99010.92;1611375;87;20246;-88
2021/09/02 07:26:30;;;;;;;;;;;;;;;15.62;93.26;99013.44;1612340;88;24626;-88
2021/09/02 07:28:56;;;;;;;;;;;;;;;15.69;93.23;99015.11;1608237;87;22163;-88
2021/09/02 07:31:25;;;;;;;;;;;;;;;15.69;93.21;99019.91;1604122;88;26081;-88
2021/09/02 07:33:51;;;;;;;;;;;;;;;15.73;93.19;99017.36;1596775;88;24459;-88
2021/09/02 07:36:17;;;;;;;;;;;;;;;15.76;93.20;99022.89;1609401;87;20492;-87
2021/09/02 07:38:43;;;;;;;;;;;;;;;15.78;93.17;99024.91;1610995;88;24524;-88
2021/09/02 07:41:09;;;;;;;;;;;;;;;15.84;93.11;99029.69;1608964;87;22176;-88
2021/09/02 07:43:47;;;;;;;;;;;;;;;15.90;93.06;99029.19;1609139;87;21062;-88
2021/09/02 07:46:13;;;;;;;;;;;;;;;15.94;93.00;99037.68;1603907;87;24720;-87
2021/09/02 07:48:46;;;;;;;;;;;;;;;16.00;92.98;99033.22;1611133;87;20823;-88
2021/09/02 07:51:14;;;;;;;;;;;;;;;16.06;92.99;99046.76;1613072;87;24538;-87
2021/09/02 07:53:40;;;;;;;;;;;;;;;16.14;92.99;99044.34;1608099;87;22173;-87
2021/09/02 07:56:06;;;;;;;;;;;;;;;16.13;92.90;99045.77;1608251;87;21129;-87
2021/09/02 07:58:32;;;;;;;;;;;;;;;16.11;92.77;99048.53;1609353;87;20273;-87
2021/09/02 08:00:58;;;;;;;;;;;;;;;16.02;92.68;99054.59;1605741;88;20503;-87
2021/09/02 08:03:27;;;;;;;;;;;;;;;15.90;92.52;99051.62;1610186;87;24516;-88
2021/09/02 08:05:54;;;;;;;;;;;;;;;15.87;92.40;99055.84;1607468;87;21916;-88
2021/09/02 08:08:21;;;;;;;;;;;;;;;15.89;92.33;99043.34;1609585;87;26797;-88
2021/09/02 08:10:47;;;;;;;;;;;;;;;15.92;92.27;99044.42;1609958;87;24534;-88
2021/09/02 08:13:13;;;;;;;;;;;;;;;15.97;92.20;99048.84;1613268;87;20258;-88
2021/09/02 08:15:40;;;;;;;;;;;;;;;16.06;92.19;99045.44;1612745;87;24643;-88
2021/09/02 08:18:06;;;;;;;;;;;;;;;16.14;92.17;99051.42;1610271;87;22186;-88
2021/09/02 08:20:32;;;;;;;;;;;;;;;16.10;92.05;99056.57;1611039;87;26156;-88
2021/09/02 08:23:04;;;;;;;;;;;;;;;16.06;91.93;99057.80;1612445;87;24407;-87
2021/09/02 08:25:32;;;;;;;;;;;;;;;16.10;91.89;99053.45;1641258;85;20181;-88
2021/09/02 08:27:58;;;;;;;;;;;;;;;16.18;91.88;99051.03;1610676;88;24543;-87
2021/09/02 08:30:25;;;;;;;;;;;;;;;16.31;91.84;99049.03;1610895;88;20851;-87
2021/09/02 08:32:51;;;;;;;;;;;;;;;16.38;91.78;99053.33;1609349;87;26099;-87
2021/09/02 08:35:22;;;;;;;;;;;;;;;16.55;91.75;99058.52;1601251;87;24464;-88
2021/09/02 08:37:49;;;;;;;;;;;;;;;16.66;91.71;99063.28;1602899;87;20328;-87
2021/09/02 08:40:20;;;;;;;;;;;;;;;16.67;91.60;99062.32;1606597;87;24570;-87
2021/09/02 08:42:46;;;;;;;;;;;;;;;16.70;91.50;99067.33;1613005;87;22102;-88
2021/09/02 08:45:13;;;;;;;;;;;;;;;16.76;91.42;99067.30;1611882;88;26013;-87
2021/09/02 08:47:41;;;;;;;;;;;;;;;16.84;91.40;99063.53;1610237;87;24532;-88
2021/09/02 08:50:08;;;;;;;;;;;;;;;16.88;91.33;99071.55;1606922;87;20294;-87
2021/09/02 08:52:34;;;;;;;;;;;;;;;16.88;91.25;99069.38;1612731;87;24777;-87
2021/09/02 08:55:03;;;;;;;;;;;;;;;16.84;91.11;99068.81;1612204;87;22112;-87
2021/09/02 08:57:30;;;;;;;;;;;;;;;16.82;90.98;99068.58;1608926;87;26234;-88
2021/09/02 08:59:56;;;;;;;;;;;;;;;16.77;90.78;99074.27;1603181;87;24531;-88
2021/09/02 09:02:25;;;;;;;;;;;;;;;16.70;90.65;99067.81;1608091;87;20312;-88
2021/09/02 09:05:02;;;;;;;;;;;;;;;16.68;90.55;99071.93;1601362;87;25241;-87
2021/09/02 09:07:32;;;;;;;;;;;;;;;16.88;90.48;99065.42;1606064;87;22875;-88
2021/09/02 09:09:59;;;;;;;;;;;;;;;17.01;90.43;99064.73;1606040;87;26118;-87
2021/09/02 09:12:31;;;;;;;;;;;;;;;17.06;90.33;99062.05;1608639;87;24128;-88
2021/09/02 09:14:58;;;;;;;;;;;;;;;17.08;90.19;99071.14;1612003;87;20324;-87
2021/09/02 09:17:24;;;;;;;;;;;;;;;17.08;90.01;99060.56;1606944;88;24545;-87
2021/09/02 09:19:51;;;;;;;;;;;;;;;17.13;89.83;99059.20;1604345;88;22000;-87
2021/09/02 09:22:20;;;;;;;;;;;;;;;17.17;89.69;99063.76;1606443;87;26731;-88
2021/09/02 09:24:50;;;;;;;;;;;;;;;17.17;89.49;99060.27;1605780;87;24546;-88
2021/09/02 09:27:18;;;;;;;;;;;;;;;17.20;89.35;99056.86;1611070;87;20482;-88
2021/09/02 09:29:44;;;;;;;;;;;;;;;17.25;89.18;99060.42;1601332;87;24556;-88
2021/09/02 09:32:15;;;;;;;;;;;;;;;17.42;89.12;99066.41;1614332;87;22063;-88
2021/09/02 09:34:51;;;;;;;;;;;;;;;17.48;88.98;99068.52;1608594;87;26076;-88
2021/09/02 09:37:18;;;;;;;;;;;;;;;17.45;88.76;99059.05;1617367;87;24619;-88
2021/09/02 09:39:44;;;;;;;;;;;;;;;17.45;88.56;99067.48;1612765;87;20244;-87
2021/09/02 09:42:10;;;;;;;;;;;;;;;17.43;88.30;99066.77;1602228;87;24782;-88
2021/09/02 09:44:41;;;;;;;;;;;;;;;17.39;88.10;99064.05;1573155;89;22088;-88
2021/09/02 09:47:17;;;;;;;;;;;;;;;17.36;87.86;99065.13;1590501;88;26663;-88
2021/09/02 09:49:48;;;;;;;;;;;;;;;17.42;87.62;99078.31;1600261;88;25215;-89
2021/09/02 09:52:33;;;;;;;;;;;;;;;17.52;87.40;99073.88;1600726;88;20262;-90
2021/09/02 09:55:07;;;;;;;;;;;;;;;17.58;87.19;99074.19;1601468;88;24611;-89
2021/09/02 09:57:33;;;;;;;;;;;;;;;17.50;86.95;99075.36;1583432;89;22038;-89
2021/09/02 10:00:00;;;;;;;;;;;;;;;17.44;86.72;99074.58;1601852;88;26043;-89
2021/09/02 10:02:30;;;;;;;;;;;;;;;17.47;86.50;99082.71;1601363;88;24647;-86
2021/09/02 10:04:58;;;;;;;;;;;;;;;17.46;86.32;99087.65;1600527;88;20267;-86
2021/09/02 10:07:26;;;;;;;;;;;;;;;17.52;86.15;99083.14;1602053;88;24269;-86
2021/09/02 10:09:52;;;;;;;;;;;;;;;17.60;86.00;99074.58;1601853;88;21821;-86
2021/09/02 10:12:25;;;;;;;;;;;;;;;17.63;85.84;99077.77;1602763;88;26008;-87
2021/09/02 10:14:55;;;;;;;;;;;;;;;17.58;85.58;99076.83;1605285;88;24438;-88
2021/09/02 10:17:20;;;;;;;;;;;;;;;17.57;85.31;99078.28;1600986;87;20385;-87
2021/09/02 10:19:52;;;;;;;;;;;;;;;17.53;85.02;99078.21;1605181;88;24555;-86
2021/09/02 10:22:19;;;;;;;;;;;;;;;17.55;84.81;99075.80;1599953;88;21982;-87
2021/09/02 10:24:45;;;;;;;;;;;;;;;17.61;84.69;99077.09;1601550;88;26023;-87
2021/09/02 10:27:19;;;;;;;;;;;;;;;17.67;84.46;99070.42;1601423;88;24524;-86
2021/09/02 10:29:45;;;;;;;;;;;;;;;17.78;84.31;99065.81;1601509;88;20384;-86
2021/09/02 10:32:28;;;;;;;;;;;;;;;17.89;84.10;99070.98;1602675;88;24859;-86
2021/09/02 10:34:59;;;;;;;;;;;;;;;17.92;83.85;99073.38;1599233;88;22135;-89
2021/09/02 10:37:46;;;;;;;;;;;;;;;17.92;83.56;99075.19;1602909;88;26591;-89
2021/09/02 10:40:18;;;;;;;;;;;;;;;17.95;83.32;99067.80;1574808;89;24476;-88
2021/09/02 10:42:46;;;;;;;;;;;;;;;18.01;83.12;99071.70;1582407;90;20222;-89
2021/09/02 10:45:31;;;;;;;;;;;;;;;18.02;82.97;99073.87;1569784;90;25242;-88
2021/09/02 10:48:02;;;;;;;;;;;;;;;17.94;82.73;99071.44;1571061;89;22019;-88
2021/09/02 10:50:29;;;;;;;;;;;;;;;18.04;82.58;99068.80;1578197;90;26025;-88
2021/09/02 10:53:12;;;;;;;;;;;;;;;18.03;82.31;99073.73;1547858;91;24728;-88
2021/09/02 10:55:40;;;;;;;;;;;;;;;18.08;82.12;99078.61;1574172;89;20273;-89
2021/09/02 10:58:07;;;;;;;;;;;;;;;18.18;81.90;99071.50;1574249;90;24614;-89
2021/09/02 11:00:48;;;;;;;;;;;;;;;18.33;81.77;99059.02;1572812;90;22815;-89
2021/09/02 11:03:15;;;;;;;;;;;;;;;18.50;81.66;99064.09;1567952;90;26331;-90
2021/09/02 11:05:43;;;;;;;;;;;;;;;18.59;81.54;99063.29;1546495;91;24409;-89
2021/09/02 11:08:10;;;;;;;;;;;;;;;18.63;81.38;99066.48;1554726;91;20274;-89
2021/09/02 11:10:41;;;;;;;;;;;;;;;18.51;81.08;99071.06;1551342;91;24714;-91
2021/09/02 11:13:07;;;;;;;;;;;;;;;18.51;80.78;99066.25;1574604;89;21977;-88
2021/09/02 11:15:37;;;;;;;;;;;;;;;18.52;80.53;99062.14;1571089;90;26232;-88
2021/09/02 11:18:04;;;;;;;;;;;;;;;18.62;80.32;99061.66;1571143;89;24560;-89
2021/09/02 11:20:31;;;;;;;;;;;;;;;18.70;80.16;99069.76;1549680;91;20178;-88
2021/09/02 11:23:20;;;;;;;;;;;;;;;18.82;80.00;99069.59;1574056;89;24616;-89
2021/09/02 11:25:48;;;;;;;;;;;;;;;18.90;79.91;99064.39;1550051;91;21999;-89
2021/09/02 11:28:14;;;;;;;;;;;;;;;18.95;79.69;99065.63;1571239;89;26051;-88
2021/09/02 11:30:40;;;;;;;;;;;;;;;19.07;79.57;99071.60;1548942;91;24553;-88
2021/09/02 11:33:07;;;;;;;;;;;;;;;19.16;79.44;99062.27;1572149;90;20924;-88
2021/09/02 11:35:34;;;;;;;;;;;;;;;19.17;79.25;99077.22;1573486;90;24567;-88
2021/09/02 11:38:01;;;;;;;;;;;;;;;19.17;79.03;99067.93;1568352;90;22205;-87
2021/09/02 11:40:34;;;;;;;;;;;;;;;19.20;78.78;99066.81;1565910;90;26008;-87
2021/09/02 11:43:00;;;;;;;;;;;;;;;19.26;78.55;99076.82;1546327;90;24597;-88
2021/09/02 11:45:29;;;;;;;;;;;;;;;19.29;78.33;99076.55;1546996;92;20395;-87
2021/09/02 11:47:55;;;;;;;;;;;;;;;19.38;78.12;99071.67;1574355;90;24567;-87
2021/09/02 11:50:22;;;;;;;;;;;;;;;19.47;77.97;99073.98;1547269;92;22044;-87
2021/09/02 11:55:43;;;;;;;;;;;;;;;19.51;77.51;99076.68;1561804;91;24556;-88
2021/09/02 11:58:09;;;;;;;;;;;;;;;19.46;77.14;99067.84;1553190;91;20253;-88
2021/09/02 12:00:35;;;;;;;;;;;;;;;19.45;76.84;99063.50;1552154;92;20818;-88
2021/09/02 12:03:02;;;;;;;;;;;;;;;19.45;76.57;99067.48;1588962;88;21879;-88
2021/09/02 12:05:36;;;;;;;;;;;;;;;19.49;76.37;99059.56;1542577;92;26635;-88
2021/09/02 12:07:59;;;;;;;;;;;;;;;19.45;76.13;99062.17;1571270;89;24586;-87
2021/09/02 12:10:25;;;;;;;;;;;;;;;19.44;75.90;99062.28;1588536;88;20254;-87
2021/09/02 12:12:51;;;;;;;;;;;;;;;19.42;75.69;99062.42;1541017;92;20259;-87
2021/09/02 12:15:30;;;;;;;;;;;;;;;19.35;75.37;99061.36;1553245;92;20856;-87
2021/09/02 12:18:06;;;;;;;;;;;;;;;19.23;74.98;99063.86;1546088;92;25999;-87
2021/09/02 12:20:35;;;;;;;;;;;;;;;19.33;74.85;99063.80;1551884;90;24630;-87
2021/09/02 12:23:05;;;;;;;;;;;;;;;19.30;74.63;99061.45;1552745;92;20236;-86
2021/09/02 12:25:31;;;;;;;;;;;;;;;19.35;74.49;99065.83;1580420;88;24616;-86
2021/09/02 12:27:57;;;;;;;;;;;;;;;19.48;74.40;99061.87;1547397;92;20939;-86
2021/09/02 12:30:41;;;;;;;;;;;;;;;19.61;74.33;99058.38;1584870;90;20197;-87
2021/09/02 12:33:12;;;;;;;;;;;;;;;19.68;74.15;99056.47;1546551;91;25477;-87
2021/09/02 12:35:47;;;;;;;;;;;;;;;19.68;73.92;99057.79;1572639;90;20446;-87
2021/09/02 12:38:32;;;;;;;;;;;;;;;19.56;73.63;99055.83;1576207;90;24586;-87
2021/09/02 12:41:13;;;;;;;;;;;;;;;19.42;73.26;99053.12;1572320;90;22092;-87
2021/09/02 12:43:39;;;;;;;;;;;;;;;19.39;73.11;99053.44;1571729;88;26171;-88
2021/09/02 12:46:05;;;;;;;;;;;;;;;19.37;73.00;99045.27;1541057;91;24408;-88
2021/09/02 12:48:31;;;;;;;;;;;;;;;19.36;72.86;99042.30;1557351;91;20248;-88
2021/09/02 12:50:59;;;;;;;;;;;;;;;19.33;72.77;99044.73;1540048;92;20791;-87
2021/09/02 12:53:33;;;;;;;;;;;;;;;19.21;72.70;99029.98;1547039;92;22022;-87
2021/09/02 12:56:01;;;;;;;;;;;;;;;19.28;72.70;99044.83;1536188;92;26248;-87
2021/09/02 12:58:30;;;;;;;;;;;;;;;19.36;72.75;99043.13;1564188;90;24480;-88
2021/09/02 13:00:56;;;;;;;;;;;;;;;19.43;72.75;99041.53;1565336;89;20340;-87